sensor_id;sensor_type;location;lat;lon;timestamp;P1;durP1;ratioP1;P2;durP2;ratioP2
20363;SDS011;10340;53.664;9.908;2022-10-13T00:02:19;7.35;;;4.55;;
20363;SDS011;10340;53.664;9.908;2022-10-13T00:04:46;8.32;;;4.15;;
20363;SDS011;10340;53.664;9.908;2022-10-13T00:07:13;6.78;;;4.50;;
20363;SDS011;10340;53.664;9.908;2022-10-13T00:09:39;7.43;;;4.72;;
20363;SDS011;10340;53.664;9.908;2022-10-13T00:12:08;4.20;;;3.80;;
20363;SDS011;10340;53.664;9.908;2022-10-13T00:14:34;5.13;;;3.88;;
20363;SDS011;10340;53.664;9.908;2022-10-13T00:17:01;9.23;;;5.03;;
20363;SDS011;10340;53.664;9.908;2022-10-13T00:19:28;6.13;;;4.50;;
20363;SDS011;10340;53.664;9.908;2022-10-13T00:21:55;6.95;;;4.68;;
20363;SDS011;10340;53.664;9.908;2022-10-13T00:24:22;7.75;;;3.92;;
20363;SDS011;10340;53.664;9.908;2022-10-13T00:26:49;8.27;;;4.50;;
20363;SDS011;10340;53.664;9.908;2022-10-13T00:29:18;4.57;;;3.95;;
20363;SDS011;10340;53.664;9.908;2022-10-13T00:31:45;7.20;;;4.85;;
20363;SDS011;10340;53.664;9.908;2022-10-13T00:34:12;5.97;;;4.03;;
20363;SDS011;10340;53.664;9.908;2022-10-13T00:36:39;6.60;;;4.40;;
20363;SDS011;10340;53.664;9.908;2022-10-13T00:39:06;4.38;;;3.65;;
20363;SDS011;10340;53.664;9.908;2022-10-13T00:41:32;5.68;;;4.00;;
20363;SDS011;10340;53.664;9.908;2022-10-13T00:44:00;9.02;;;4.18;;
20363;SDS011;10340;53.664;9.908;2022-10-13T00:46:30;6.68;;;4.18;;
20363;SDS011;10340;53.664;9.908;2022-10-13T00:48:58;4.55;;;4.03;;
20363;SDS011;10340;53.664;9.908;2022-10-13T00:51:29;5.90;;;3.78;;
20363;SDS011;10340;53.664;9.908;2022-10-13T00:53:59;4.13;;;3.72;;
20363;SDS011;10340;53.664;9.908;2022-10-13T00:56:28;4.93;;;4.03;;
20363;SDS011;10340;53.664;9.908;2022-10-13T00:58:55;5.30;;;4.00;;
20363;SDS011;10340;53.664;9.908;2022-10-13T01:01:23;7.65;;;4.10;;
20363;SDS011;10340;53.664;9.908;2022-10-13T01:03:51;5.53;;;3.80;;
20363;SDS011;10340;53.664;9.908;2022-10-13T01:06:18;4.80;;;3.75;;
20363;SDS011;10340;53.664;9.908;2022-10-13T01:08:45;6.18;;;4.47;;
20363;SDS011;10340;53.664;9.908;2022-10-13T01:14:02;7.22;;;3.70;;
20363;SDS011;10340;53.664;9.908;2022-10-13T01:16:39;4.43;;;3.95;;
20363;SDS011;10340;53.664;9.908;2022-10-13T01:19:18;5.85;;;4.18;;
20363;SDS011;10340;53.664;9.908;2022-10-13T01:21:58;5.80;;;3.70;;
20363;SDS011;10340;53.664;9.908;2022-10-13T01:24:39;4.72;;;4.22;;
20363;SDS011;10340;53.664;9.908;2022-10-13T01:27:12;5.82;;;3.60;;
20363;SDS011;10340;53.664;9.908;2022-10-13T01:32:46;6.47;;;4.13;;
20363;SDS011;10340;53.664;9.908;2022-10-13T01:35:36;3.97;;;3.42;;
20363;SDS011;10340;53.664;9.908;2022-10-13T01:38:12;4.70;;;4.30;;
20363;SDS011;10340;53.664;9.908;2022-10-13T01:40:48;6.35;;;3.50;;
20363;SDS011;10340;53.664;9.908;2022-10-13T01:43:21;4.82;;;4.00;;
20363;SDS011;10340;53.664;9.908;2022-10-13T01:45:53;3.88;;;3.38;;
20363;SDS011;10340;53.664;9.908;2022-10-13T01:48:23;3.60;;;3.30;;
20363;SDS011;10340;53.664;9.908;2022-10-13T01:50:51;4.97;;;4.32;;
20363;SDS011;10340;53.664;9.908;2022-10-13T01:53:21;6.00;;;3.88;;
20363;SDS011;10340;53.664;9.908;2022-10-13T01:55:49;6.95;;;4.35;;
20363;SDS011;10340;53.664;9.908;2022-10-13T01:58:17;4.95;;;3.47;;
20363;SDS011;10340;53.664;9.908;2022-10-13T02:00:46;3.80;;;3.33;;
20363;SDS011;10340;53.664;9.908;2022-10-13T02:03:22;3.08;;;2.88;;
20363;SDS011;10340;53.664;9.908;2022-10-13T02:05:56;3.42;;;3.13;;
20363;SDS011;10340;53.664;9.908;2022-10-13T02:08:30;2.95;;;2.67;;
20363;SDS011;10340;53.664;9.908;2022-10-13T02:11:04;3.05;;;2.80;;
20363;SDS011;10340;53.664;9.908;2022-10-13T02:13:39;3.50;;;3.20;;
20363;SDS011;10340;53.664;9.908;2022-10-13T02:16:10;3.30;;;3.00;;
20363;SDS011;10340;53.664;9.908;2022-10-13T02:18:39;4.38;;;3.20;;
20363;SDS011;10340;53.664;9.908;2022-10-13T02:21:06;3.58;;;3.25;;
20363;SDS011;10340;53.664;9.908;2022-10-13T02:23:34;5.15;;;4.00;;
20363;SDS011;10340;53.664;9.908;2022-10-13T02:26:01;6.72;;;4.22;;
20363;SDS011;10340;53.664;9.908;2022-10-13T02:28:28;5.78;;;4.60;;
20363;SDS011;10340;53.664;9.908;2022-10-13T02:30:55;4.53;;;3.97;;
20363;SDS011;10340;53.664;9.908;2022-10-13T02:33:22;5.75;;;4.15;;
20363;SDS011;10340;53.664;9.908;2022-10-13T02:35:50;6.18;;;3.95;;
20363;SDS011;10340;53.664;9.908;2022-10-13T02:38:17;4.15;;;3.50;;
20363;SDS011;10340;53.664;9.908;2022-10-13T02:40:44;3.60;;;3.30;;
20363;SDS011;10340;53.664;9.908;2022-10-13T02:43:11;3.22;;;2.92;;
20363;SDS011;10340;53.664;9.908;2022-10-13T02:45:38;3.17;;;2.92;;
20363;SDS011;10340;53.664;9.908;2022-10-13T02:48:05;4.18;;;3.78;;
20363;SDS011;10340;53.664;9.908;2022-10-13T02:50:32;4.47;;;3.63;;
20363;SDS011;10340;53.664;9.908;2022-10-13T02:53:00;4.22;;;3.47;;
20363;SDS011;10340;53.664;9.908;2022-10-13T02:55:27;6.18;;;3.90;;
20363;SDS011;10340;53.664;9.908;2022-10-13T02:57:54;6.32;;;3.65;;
20363;SDS011;10340;53.664;9.908;2022-10-13T03:00:20;7.38;;;4.32;;
20363;SDS011;10340;53.664;9.908;2022-10-13T03:02:47;5.75;;;4.63;;
20363;SDS011;10340;53.664;9.908;2022-10-13T03:05:14;6.25;;;4.43;;
20363;SDS011;10340;53.664;9.908;2022-10-13T03:07:41;6.60;;;4.65;;
20363;SDS011;10340;53.664;9.908;2022-10-13T03:10:09;5.20;;;4.28;;
20363;SDS011;10340;53.664;9.908;2022-10-13T03:12:36;5.30;;;4.20;;
20363;SDS011;10340;53.664;9.908;2022-10-13T03:15:03;7.10;;;4.30;;
20363;SDS011;10340;53.664;9.908;2022-10-13T03:17:31;5.60;;;4.53;;
20363;SDS011;10340;53.664;9.908;2022-10-13T03:19:58;9.35;;;4.45;;
20363;SDS011;10340;53.664;9.908;2022-10-13T03:22:24;4.30;;;3.90;;
20363;SDS011;10340;53.664;9.908;2022-10-13T03:24:51;3.97;;;3.60;;
20363;SDS011;10340;53.664;9.908;2022-10-13T03:27:19;5.10;;;3.78;;
20363;SDS011;10340;53.664;9.908;2022-10-13T03:29:46;4.28;;;3.92;;
20363;SDS011;10340;53.664;9.908;2022-10-13T03:32:13;3.40;;;3.10;;
20363;SDS011;10340;53.664;9.908;2022-10-13T03:34:40;3.72;;;3.42;;
20363;SDS011;10340;53.664;9.908;2022-10-13T03:37:07;8.15;;;4.70;;
20363;SDS011;10340;53.664;9.908;2022-10-13T03:39:34;4.88;;;4.38;;
20363;SDS011;10340;53.664;9.908;2022-10-13T03:42:01;5.03;;;4.53;;
20363;SDS011;10340;53.664;9.908;2022-10-13T03:44:29;5.13;;;3.92;;
20363;SDS011;10340;53.664;9.908;2022-10-13T03:46:56;6.53;;;4.85;;
20363;SDS011;10340;53.664;9.908;2022-10-13T03:49:22;4.57;;;3.90;;
20363;SDS011;10340;53.664;9.908;2022-10-13T03:51:49;4.53;;;3.40;;
20363;SDS011;10340;53.664;9.908;2022-10-13T03:54:16;4.78;;;3.90;;
20363;SDS011;10340;53.664;9.908;2022-10-13T03:56:43;4.32;;;3.92;;
20363;SDS011;10340;53.664;9.908;2022-10-13T03:59:10;4.70;;;3.70;;
20363;SDS011;10340;53.664;9.908;2022-10-13T04:01:42;4.35;;;3.75;;
20363;SDS011;10340;53.664;9.908;2022-10-13T04:04:08;4.20;;;3.80;;
20363;SDS011;10340;53.664;9.908;2022-10-13T04:06:36;5.07;;;4.30;;
20363;SDS011;10340;53.664;9.908;2022-10-13T04:09:03;6.85;;;4.35;;
20363;SDS011;10340;53.664;9.908;2022-10-13T04:11:30;4.70;;;4.30;;
20363;SDS011;10340;53.664;9.908;2022-10-13T04:13:57;4.18;;;3.78;;
20363;SDS011;10340;53.664;9.908;2022-10-13T04:16:25;6.50;;;4.93;;
20363;SDS011;10340;53.664;9.908;2022-10-13T04:18:55;5.50;;;4.68;;
20363;SDS011;10340;53.664;9.908;2022-10-13T04:21:24;8.50;;;5.10;;
20363;SDS011;10340;53.664;9.908;2022-10-13T04:23:53;6.13;;;4.82;;
20363;SDS011;10340;53.664;9.908;2022-10-13T04:26:22;6.18;;;4.80;;
20363;SDS011;10340;53.664;9.908;2022-10-13T04:28:52;9.63;;;5.55;;
20363;SDS011;10340;53.664;9.908;2022-10-13T04:31:20;4.65;;;4.20;;
20363;SDS011;10340;53.664;9.908;2022-10-13T04:33:47;5.57;;;4.60;;
20363;SDS011;10340;53.664;9.908;2022-10-13T04:36:16;4.70;;;4.20;;
20363;SDS011;10340;53.664;9.908;2022-10-13T04:38:43;4.88;;;4.28;;
20363;SDS011;10340;53.664;9.908;2022-10-13T04:41:11;7.38;;;4.55;;
20363;SDS011;10340;53.664;9.908;2022-10-13T04:43:40;4.53;;;4.10;;
20363;SDS011;10340;53.664;9.908;2022-10-13T04:46:08;4.43;;;4.03;;
20363;SDS011;10340;53.664;9.908;2022-10-13T04:48:36;6.47;;;4.45;;
20363;SDS011;10340;53.664;9.908;2022-10-13T04:51:03;7.10;;;4.80;;
20363;SDS011;10340;53.664;9.908;2022-10-13T04:53:33;5.80;;;4.55;;
20363;SDS011;10340;53.664;9.908;2022-10-13T04:56:01;7.05;;;4.65;;
20363;SDS011;10340;53.664;9.908;2022-10-13T04:58:30;5.78;;;4.57;;
20363;SDS011;10340;53.664;9.908;2022-10-13T05:00:57;4.68;;;4.28;;
20363;SDS011;10340;53.664;9.908;2022-10-13T05:03:24;8.90;;;5.45;;
20363;SDS011;10340;53.664;9.908;2022-10-13T05:05:51;6.35;;;4.65;;
20363;SDS011;10340;53.664;9.908;2022-10-13T05:08:18;10.02;;;4.97;;
20363;SDS011;10340;53.664;9.908;2022-10-13T05:10:53;8.38;;;5.38;;
20363;SDS011;10340;53.664;9.908;2022-10-13T05:13:21;5.95;;;5.00;;
20363;SDS011;10340;53.664;9.908;2022-10-13T05:15:48;7.97;;;5.25;;
20363;SDS011;10340;53.664;9.908;2022-10-13T05:18:15;7.45;;;5.40;;
20363;SDS011;10340;53.664;9.908;2022-10-13T05:20:42;7.40;;;5.05;;
20363;SDS011;10340;53.664;9.908;2022-10-13T05:23:10;7.28;;;4.90;;
20363;SDS011;10340;53.664;9.908;2022-10-13T05:25:37;5.00;;;4.57;;
20363;SDS011;10340;53.664;9.908;2022-10-13T05:28:06;7.20;;;5.20;;
20363;SDS011;10340;53.664;9.908;2022-10-13T05:30:33;7.00;;;5.22;;
20363;SDS011;10340;53.664;9.908;2022-10-13T05:33:00;5.88;;;5.05;;
20363;SDS011;10340;53.664;9.908;2022-10-13T05:35:27;7.47;;;5.95;;
20363;SDS011;10340;53.664;9.908;2022-10-13T05:37:54;8.23;;;6.07;;
20363;SDS011;10340;53.664;9.908;2022-10-13T05:40:21;7.25;;;6.38;;
20363;SDS011;10340;53.664;9.908;2022-10-13T05:42:48;8.63;;;5.85;;
20363;SDS011;10340;53.664;9.908;2022-10-13T05:45:17;8.77;;;5.88;;
20363;SDS011;10340;53.664;9.908;2022-10-13T05:47:46;7.32;;;5.75;;
20363;SDS011;10340;53.664;9.908;2022-10-13T05:50:13;7.47;;;6.15;;
20363;SDS011;10340;53.664;9.908;2022-10-13T05:52:40;9.52;;;6.07;;
20363;SDS011;10340;53.664;9.908;2022-10-13T05:55:08;7.72;;;6.63;;
20363;SDS011;10340;53.664;9.908;2022-10-13T05:57:41;7.75;;;5.75;;
20363;SDS011;10340;53.664;9.908;2022-10-13T06:00:14;8.57;;;6.55;;
20363;SDS011;10340;53.664;9.908;2022-10-13T06:02:44;7.22;;;6.32;;
20363;SDS011;10340;53.664;9.908;2022-10-13T06:05:15;7.72;;;6.03;;
20363;SDS011;10340;53.664;9.908;2022-10-13T06:07:44;9.00;;;6.75;;
20363;SDS011;10340;53.664;9.908;2022-10-13T06:10:12;9.18;;;7.28;;
20363;SDS011;10340;53.664;9.908;2022-10-13T06:12:39;7.97;;;6.75;;
20363;SDS011;10340;53.664;9.908;2022-10-13T06:15:06;7.32;;;6.63;;
20363;SDS011;10340;53.664;9.908;2022-10-13T06:17:34;8.00;;;5.95;;
20363;SDS011;10340;53.664;9.908;2022-10-13T06:20:03;12.15;;;6.85;;
20363;SDS011;10340;53.664;9.908;2022-10-13T06:22:32;14.40;;;6.20;;
20363;SDS011;10340;53.664;9.908;2022-10-13T06:25:00;11.10;;;7.13;;
20363;SDS011;10340;53.664;9.908;2022-10-13T06:27:27;6.63;;;6.00;;
20363;SDS011;10340;53.664;9.908;2022-10-13T06:29:54;7.10;;;5.68;;
20363;SDS011;10340;53.664;9.908;2022-10-13T06:32:21;6.78;;;6.05;;
20363;SDS011;10340;53.664;9.908;2022-10-13T06:34:48;8.52;;;6.30;;
20363;SDS011;10340;53.664;9.908;2022-10-13T06:37:16;9.00;;;6.00;;
20363;SDS011;10340;53.664;9.908;2022-10-13T06:39:43;8.38;;;5.65;;
20363;SDS011;10340;53.664;9.908;2022-10-13T06:42:10;9.90;;;6.25;;
20363;SDS011;10340;53.664;9.908;2022-10-13T06:44:36;7.90;;;6.45;;
20363;SDS011;10340;53.664;9.908;2022-10-13T06:47:03;9.40;;;6.20;;
20363;SDS011;10340;53.664;9.908;2022-10-13T06:49:30;8.30;;;6.18;;
20363;SDS011;10340;53.664;9.908;2022-10-13T06:51:57;8.35;;;6.85;;
20363;SDS011;10340;53.664;9.908;2022-10-13T06:54:26;9.65;;;7.43;;
20363;SDS011;10340;53.664;9.908;2022-10-13T06:56:53;8.38;;;6.93;;
20363;SDS011;10340;53.664;9.908;2022-10-13T06:59:19;10.63;;;7.35;;
20363;SDS011;10340;53.664;9.908;2022-10-13T07:01:46;8.45;;;7.45;;
20363;SDS011;10340;53.664;9.908;2022-10-13T07:04:15;11.35;;;7.32;;
20363;SDS011;10340;53.664;9.908;2022-10-13T07:06:42;12.52;;;7.55;;
20363;SDS011;10340;53.664;9.908;2022-10-13T07:09:09;11.18;;;7.60;;
20363;SDS011;10340;53.664;9.908;2022-10-13T07:11:37;12.30;;;7.93;;
20363;SDS011;10340;53.664;9.908;2022-10-13T07:14:04;8.93;;;7.53;;
20363;SDS011;10340;53.664;9.908;2022-10-13T07:16:31;9.15;;;8.25;;
20363;SDS011;10340;53.664;9.908;2022-10-13T07:18:58;14.35;;;8.23;;
20363;SDS011;10340;53.664;9.908;2022-10-13T07:21:25;12.23;;;7.90;;
20363;SDS011;10340;53.664;9.908;2022-10-13T07:23:51;11.13;;;7.85;;
20363;SDS011;10340;53.664;9.908;2022-10-13T07:26:18;8.38;;;7.18;;
20363;SDS011;10340;53.664;9.908;2022-10-13T07:28:47;11.50;;;8.70;;
20363;SDS011;10340;53.664;9.908;2022-10-13T07:31:15;11.90;;;9.05;;
20363;SDS011;10340;53.664;9.908;2022-10-13T07:33:45;10.88;;;8.82;;
20363;SDS011;10340;53.664;9.908;2022-10-13T07:36:13;9.57;;;7.95;;
20363;SDS011;10340;53.664;9.908;2022-10-13T07:38:40;12.13;;;8.38;;
20363;SDS011;10340;53.664;9.908;2022-10-13T07:41:08;10.98;;;8.15;;
20363;SDS011;10340;53.664;9.908;2022-10-13T07:43:36;11.52;;;8.73;;
20363;SDS011;10340;53.664;9.908;2022-10-13T07:46:05;15.95;;;9.27;;
20363;SDS011;10340;53.664;9.908;2022-10-13T07:48:33;11.63;;;8.85;;
20363;SDS011;10340;53.664;9.908;2022-10-13T07:51:02;9.43;;;8.32;;
20363;SDS011;10340;53.664;9.908;2022-10-13T07:53:31;16.27;;;10.05;;
20363;SDS011;10340;53.664;9.908;2022-10-13T07:55:59;21.95;;;11.52;;
20363;SDS011;10340;53.664;9.908;2022-10-13T07:58:26;14.77;;;10.57;;
20363;SDS011;10340;53.664;9.908;2022-10-13T08:00:56;17.27;;;11.07;;
20363;SDS011;10340;53.664;9.908;2022-10-13T08:03:26;15.20;;;10.75;;
20363;SDS011;10340;53.664;9.908;2022-10-13T08:05:53;16.98;;;11.80;;
20363;SDS011;10340;53.664;9.908;2022-10-13T08:08:20;13.05;;;10.75;;
20363;SDS011;10340;53.664;9.908;2022-10-13T08:10:47;14.90;;;10.38;;
20363;SDS011;10340;53.664;9.908;2022-10-13T08:13:14;16.05;;;11.45;;
20363;SDS011;10340;53.664;9.908;2022-10-13T08:15:41;20.40;;;11.57;;
20363;SDS011;10340;53.664;9.908;2022-10-13T08:18:09;11.55;;;9.77;;
20363;SDS011;10340;53.664;9.908;2022-10-13T08:20:39;12.23;;;9.65;;
20363;SDS011;10340;53.664;9.908;2022-10-13T08:23:07;13.68;;;9.10;;
20363;SDS011;10340;53.664;9.908;2022-10-13T08:25:35;10.10;;;8.73;;
20363;SDS011;10340;53.664;9.908;2022-10-13T08:28:03;14.15;;;9.18;;
20363;SDS011;10340;53.664;9.908;2022-10-13T08:30:30;13.23;;;8.70;;
20363;SDS011;10340;53.664;9.908;2022-10-13T08:32:57;11.15;;;9.70;;
20363;SDS011;10340;53.664;9.908;2022-10-13T08:35:24;12.27;;;8.80;;
20363;SDS011;10340;53.664;9.908;2022-10-13T08:37:52;14.85;;;9.30;;
20363;SDS011;10340;53.664;9.908;2022-10-13T08:40:20;13.52;;;9.88;;
20363;SDS011;10340;53.664;9.908;2022-10-13T08:42:50;15.95;;;10.00;;
20363;SDS011;10340;53.664;9.908;2022-10-13T08:45:18;15.23;;;9.95;;
20363;SDS011;10340;53.664;9.908;2022-10-13T08:47:47;12.98;;;8.95;;
20363;SDS011;10340;53.664;9.908;2022-10-13T08:50:19;11.38;;;8.80;;
20363;SDS011;10340;53.664;9.908;2022-10-13T08:52:49;13.25;;;8.82;;
20363;SDS011;10340;53.664;9.908;2022-10-13T08:55:23;11.88;;;8.77;;
20363;SDS011;10340;53.664;9.908;2022-10-13T08:57:55;16.15;;;9.45;;
20363;SDS011;10340;53.664;9.908;2022-10-13T09:00:27;14.45;;;9.50;;
20363;SDS011;10340;53.664;9.908;2022-10-13T09:02:56;12.05;;;9.57;;
20363;SDS011;10340;53.664;9.908;2022-10-13T09:05:35;14.38;;;8.65;;
20363;SDS011;10340;53.664;9.908;2022-10-13T09:08:09;15.13;;;9.52;;
20363;SDS011;10340;53.664;9.908;2022-10-13T09:10:46;10.13;;;8.20;;
20363;SDS011;10340;53.664;9.908;2022-10-13T09:13:16;18.08;;;10.02;;
20363;SDS011;10340;53.664;9.908;2022-10-13T09:15:43;12.68;;;9.35;;
20363;SDS011;10340;53.664;9.908;2022-10-13T09:18:11;12.10;;;9.63;;
20363;SDS011;10340;53.664;9.908;2022-10-13T09:20:39;14.35;;;9.50;;
20363;SDS011;10340;53.664;9.908;2022-10-13T09:23:08;13.48;;;9.73;;
20363;SDS011;10340;53.664;9.908;2022-10-13T09:25:45;12.40;;;9.35;;
20363;SDS011;10340;53.664;9.908;2022-10-13T09:28:14;16.67;;;9.90;;
20363;SDS011;10340;53.664;9.908;2022-10-13T09:30:45;13.38;;;10.60;;
20363;SDS011;10340;53.664;9.908;2022-10-13T09:33:14;13.32;;;9.25;;
20363;SDS011;10340;53.664;9.908;2022-10-13T09:35:45;15.25;;;10.90;;
20363;SDS011;10340;53.664;9.908;2022-10-13T09:38:14;15.27;;;9.85;;
20363;SDS011;10340;53.664;9.908;2022-10-13T09:40:43;12.85;;;10.05;;
20363;SDS011;10340;53.664;9.908;2022-10-13T09:43:26;12.38;;;10.10;;
20363;SDS011;10340;53.664;9.908;2022-10-13T09:45:55;15.43;;;11.35;;
20363;SDS011;10340;53.664;9.908;2022-10-13T09:48:23;14.35;;;10.25;;
20363;SDS011;10340;53.664;9.908;2022-10-13T09:50:54;14.23;;;10.48;;
20363;SDS011;10340;53.664;9.908;2022-10-13T09:53:23;14.27;;;10.43;;
20363;SDS011;10340;53.664;9.908;2022-10-13T09:56:07;13.38;;;10.20;;
20363;SDS011;10340;53.664;9.908;2022-10-13T09:58:41;14.70;;;10.98;;
20363;SDS011;10340;53.664;9.908;2022-10-13T10:01:15;11.55;;;9.27;;
20363;SDS011;10340;53.664;9.908;2022-10-13T10:03:46;11.30;;;9.30;;
20363;SDS011;10340;53.664;9.908;2022-10-13T10:06:14;14.73;;;10.32;;
20363;SDS011;10340;53.664;9.908;2022-10-13T10:08:43;24.98;;;14.35;;
20363;SDS011;10340;53.664;9.908;2022-10-13T10:11:17;19.42;;;12.35;;
20363;SDS011;10340;53.664;9.908;2022-10-13T10:13:47;14.38;;;11.00;;
20363;SDS011;10340;53.664;9.908;2022-10-13T10:16:18;12.52;;;10.10;;
20363;SDS011;10340;53.664;9.908;2022-10-13T10:18:55;11.95;;;9.07;;
20363;SDS011;10340;53.664;9.908;2022-10-13T10:21:30;16.92;;;10.27;;
20363;SDS011;10340;53.664;9.908;2022-10-13T10:24:02;15.43;;;10.52;;
20363;SDS011;10340;53.664;9.908;2022-10-13T10:26:43;10.95;;;8.90;;
20363;SDS011;10340;53.664;9.908;2022-10-13T10:29:21;15.23;;;9.90;;
20363;SDS011;10340;53.664;9.908;2022-10-13T10:31:59;12.65;;;9.82;;
20363;SDS011;10340;53.664;9.908;2022-10-13T10:34:33;13.10;;;9.23;;
20363;SDS011;10340;53.664;9.908;2022-10-13T10:37:12;15.52;;;10.38;;
20363;SDS011;10340;53.664;9.908;2022-10-13T10:39:45;16.98;;;10.85;;
20363;SDS011;10340;53.664;9.908;2022-10-13T10:42:20;12.65;;;10.55;;
20363;SDS011;10340;53.664;9.908;2022-10-13T10:45:12;14.82;;;9.75;;
20363;SDS011;10340;53.664;9.908;2022-10-13T10:47:42;14.52;;;10.95;;
20363;SDS011;10340;53.664;9.908;2022-10-13T10:50:12;17.23;;;10.80;;
20363;SDS011;10340;53.664;9.908;2022-10-13T10:52:41;11.55;;;9.23;;
20363;SDS011;10340;53.664;9.908;2022-10-13T10:55:17;15.57;;;9.90;;
20363;SDS011;10340;53.664;9.908;2022-10-13T10:57:52;12.40;;;9.60;;
20363;SDS011;10340;53.664;9.908;2022-10-13T11:00:27;13.00;;;10.35;;
20363;SDS011;10340;53.664;9.908;2022-10-13T11:02:57;16.55;;;9.75;;
20363;SDS011;10340;53.664;9.908;2022-10-13T11:08:27;11.45;;;9.05;;
20363;SDS011;10340;53.664;9.908;2022-10-13T11:14:15;15.43;;;9.65;;
20363;SDS011;10340;53.664;9.908;2022-10-13T11:19:52;13.65;;;10.50;;
20363;SDS011;10340;53.664;9.908;2022-10-13T11:22:20;14.98;;;9.90;;
20363;SDS011;10340;53.664;9.908;2022-10-13T11:25:03;10.88;;;9.18;;
20363;SDS011;10340;53.664;9.908;2022-10-13T11:27:48;15.57;;;9.43;;
20363;SDS011;10340;53.664;9.908;2022-10-13T11:36:35;11.57;;;8.40;;
20363;SDS011;10340;53.664;9.908;2022-10-13T11:39:21;9.73;;;8.23;;
20363;SDS011;10340;53.664;9.908;2022-10-13T11:42:20;11.70;;;9.20;;
20363;SDS011;10340;53.664;9.908;2022-10-13T11:44:59;14.48;;;9.45;;
20363;SDS011;10340;53.664;9.908;2022-10-13T11:47:38;17.90;;;10.23;;
20363;SDS011;10340;53.664;9.908;2022-10-13T11:50:31;14.02;;;9.70;;
20363;SDS011;10340;53.664;9.908;2022-10-13T11:53:06;13.93;;;9.68;;
20363;SDS011;10340;53.664;9.908;2022-10-13T11:55:42;12.95;;;9.13;;
20363;SDS011;10340;53.664;9.908;2022-10-13T11:58:15;12.05;;;9.48;;
20363;SDS011;10340;53.664;9.908;2022-10-13T12:00:50;13.13;;;8.38;;
20363;SDS011;10340;53.664;9.908;2022-10-13T12:03:21;13.70;;;9.43;;
20363;SDS011;10340;53.664;9.908;2022-10-13T12:05:50;11.27;;;8.95;;
20363;SDS011;10340;53.664;9.908;2022-10-13T12:08:17;10.85;;;9.20;;
20363;SDS011;10340;53.664;9.908;2022-10-13T12:10:47;14.23;;;9.25;;
20363;SDS011;10340;53.664;9.908;2022-10-13T12:13:20;12.95;;;9.93;;
20363;SDS011;10340;53.664;9.908;2022-10-13T12:15:51;12.95;;;10.15;;
20363;SDS011;10340;53.664;9.908;2022-10-13T12:18:26;12.85;;;9.80;;
20363;SDS011;10340;53.664;9.908;2022-10-13T12:20:58;11.60;;;8.07;;
20363;SDS011;10340;53.664;9.908;2022-10-13T12:23:28;11.77;;;9.63;;
20363;SDS011;10340;53.664;9.908;2022-10-13T12:25:55;13.60;;;8.68;;
20363;SDS011;10340;53.664;9.908;2022-10-13T12:28:24;13.32;;;9.05;;
20363;SDS011;10340;53.664;9.908;2022-10-13T12:30:56;11.40;;;9.52;;
20363;SDS011;10340;53.664;9.908;2022-10-13T12:33:29;12.65;;;9.15;;
20363;SDS011;10340;53.664;9.908;2022-10-13T12:38:51;11.95;;;8.95;;
20363;SDS011;10340;53.664;9.908;2022-10-13T12:41:22;12.45;;;9.52;;
20363;SDS011;10340;53.664;9.908;2022-10-13T12:43:51;14.10;;;9.10;;
20363;SDS011;10340;53.664;9.908;2022-10-13T12:46:34;12.02;;;9.38;;
20363;SDS011;10340;53.664;9.908;2022-10-13T12:49:06;11.25;;;8.98;;
20363;SDS011;10340;53.664;9.908;2022-10-13T12:51:39;15.88;;;9.75;;
20363;SDS011;10340;53.664;9.908;2022-10-13T12:54:07;14.48;;;9.57;;
20363;SDS011;10340;53.664;9.908;2022-10-13T12:56:42;12.68;;;9.48;;
20363;SDS011;10340;53.664;9.908;2022-10-13T12:59:12;11.38;;;9.30;;
20363;SDS011;10340;53.664;9.908;2022-10-13T13:01:42;14.40;;;9.45;;
20363;SDS011;10340;53.664;9.908;2022-10-13T13:04:17;12.48;;;8.73;;
20363;SDS011;10340;53.664;9.908;2022-10-13T13:07:21;11.02;;;9.13;;
20363;SDS011;10340;53.664;9.908;2022-10-13T13:10:08;14.27;;;9.73;;
20363;SDS011;10340;53.664;9.908;2022-10-13T13:12:40;11.70;;;9.57;;
20363;SDS011;10340;53.664;9.908;2022-10-13T13:20:50;17.20;;;9.57;;
20363;SDS011;10340;53.664;9.908;2022-10-13T13:23:17;14.32;;;9.98;;
20363;SDS011;10340;53.664;9.908;2022-10-13T13:25:43;12.98;;;9.02;;
20363;SDS011;10340;53.664;9.908;2022-10-13T13:28:11;12.30;;;9.20;;
20363;SDS011;10340;53.664;9.908;2022-10-13T13:30:40;12.40;;;9.88;;
20363;SDS011;10340;53.664;9.908;2022-10-13T13:33:08;14.25;;;10.65;;
20363;SDS011;10340;53.664;9.908;2022-10-13T13:35:35;17.15;;;9.48;;
20363;SDS011;10340;53.664;9.908;2022-10-13T13:38:04;11.63;;;9.35;;
20363;SDS011;10340;53.664;9.908;2022-10-13T13:40:31;16.45;;;10.60;;
20363;SDS011;10340;53.664;9.908;2022-10-13T13:42:58;13.60;;;9.85;;
20363;SDS011;10340;53.664;9.908;2022-10-13T13:45:25;12.07;;;9.05;;
20363;SDS011;10340;53.664;9.908;2022-10-13T13:47:51;11.20;;;9.10;;
20363;SDS011;10340;53.664;9.908;2022-10-13T13:50:20;15.75;;;10.15;;
20363;SDS011;10340;53.664;9.908;2022-10-13T13:52:49;12.68;;;9.52;;
20363;SDS011;10340;53.664;9.908;2022-10-13T13:55:17;17.95;;;9.43;;
20363;SDS011;10340;53.664;9.908;2022-10-13T13:57:44;11.35;;;9.07;;
20363;SDS011;10340;53.664;9.908;2022-10-13T14:00:12;11.82;;;8.93;;
20363;SDS011;10340;53.664;9.908;2022-10-13T14:02:40;13.23;;;10.05;;
20363;SDS011;10340;53.664;9.908;2022-10-13T14:05:08;11.32;;;10.13;;
20363;SDS011;10340;53.664;9.908;2022-10-13T14:07:36;11.05;;;8.40;;
20363;SDS011;10340;53.664;9.908;2022-10-13T14:10:04;10.80;;;8.30;;
20363;SDS011;10340;53.664;9.908;2022-10-13T14:12:33;14.20;;;10.00;;
20363;SDS011;10340;53.664;9.908;2022-10-13T14:15:00;13.15;;;9.50;;
20363;SDS011;10340;53.664;9.908;2022-10-13T14:17:27;12.38;;;8.43;;
20363;SDS011;10340;53.664;9.908;2022-10-13T14:19:54;13.50;;;9.73;;
20363;SDS011;10340;53.664;9.908;2022-10-13T14:22:21;12.07;;;9.35;;
20363;SDS011;10340;53.664;9.908;2022-10-13T14:24:48;15.27;;;10.00;;
20363;SDS011;10340;53.664;9.908;2022-10-13T14:27:15;12.52;;;9.98;;
20363;SDS011;10340;53.664;9.908;2022-10-13T14:29:43;9.93;;;8.20;;
20363;SDS011;10340;53.664;9.908;2022-10-13T14:32:11;9.85;;;8.82;;
20363;SDS011;10340;53.664;9.908;2022-10-13T14:34:38;15.90;;;9.95;;
20363;SDS011;10340;53.664;9.908;2022-10-13T14:37:05;12.27;;;9.68;;
20363;SDS011;10340;53.664;9.908;2022-10-13T14:39:32;12.93;;;9.30;;
20363;SDS011;10340;53.664;9.908;2022-10-13T14:41:59;11.10;;;8.32;;
20363;SDS011;10340;53.664;9.908;2022-10-13T14:44:25;10.68;;;8.13;;
20363;SDS011;10340;53.664;9.908;2022-10-13T14:46:54;16.08;;;10.23;;
20363;SDS011;10340;53.664;9.908;2022-10-13T14:49:21;12.98;;;10.40;;
20363;SDS011;10340;53.664;9.908;2022-10-13T14:51:48;12.35;;;9.40;;
20363;SDS011;10340;53.664;9.908;2022-10-13T14:54:14;15.18;;;9.13;;
20363;SDS011;10340;53.664;9.908;2022-10-13T14:56:41;10.85;;;8.82;;
20363;SDS011;10340;53.664;9.908;2022-10-13T14:59:09;12.52;;;8.73;;
20363;SDS011;10340;53.664;9.908;2022-10-13T15:01:37;11.80;;;8.55;;
20363;SDS011;10340;53.664;9.908;2022-10-13T15:04:06;12.85;;;8.18;;
20363;SDS011;10340;53.664;9.908;2022-10-13T15:06:34;9.90;;;7.75;;
20363;SDS011;10340;53.664;9.908;2022-10-13T15:09:03;16.50;;;9.82;;
20363;SDS011;10340;53.664;9.908;2022-10-13T15:11:30;13.20;;;9.13;;
20363;SDS011;10340;53.664;9.908;2022-10-13T15:13:58;13.10;;;7.80;;
20363;SDS011;10340;53.664;9.908;2022-10-13T15:16:25;10.00;;;8.35;;
20363;SDS011;10340;53.664;9.908;2022-10-13T15:18:53;9.65;;;7.07;;
20363;SDS011;10340;53.664;9.908;2022-10-13T15:21:23;11.80;;;8.40;;
20363;SDS011;10340;53.664;9.908;2022-10-13T15:23:50;8.32;;;6.60;;